sensor_id;sensor_type;location;lat;lon;timestamp;P1;durP1;ratioP1;P2;durP2;ratioP2
18947;SDS011;9607;51.600;7.558;2023-10-09T00:02:12;3.20;;;2.83;;
18947;SDS011;9607;51.600;7.558;2023-10-09T00:04:41;3.72;;;2.92;;
18947;SDS011;9607;51.600;7.558;2023-10-09T00:07:10;2.92;;;2.50;;
18947;SDS011;9607;51.600;7.558;2023-10-09T00:09:38;3.30;;;2.63;;
18947;SDS011;9607;51.600;7.558;2023-10-09T00:12:15;4.95;;;3.10;;
18947;SDS011;9607;51.600;7.558;2023-10-09T00:14:47;4.00;;;3.03;;
18947;SDS011;9607;51.600;7.558;2023-10-09T00:17:16;3.35;;;2.97;;
18947;SDS011;9607;51.600;7.558;2023-10-09T00:19:45;4.40;;;2.88;;
18947;SDS011;9607;51.600;7.558;2023-10-09T00:22:16;9.52;;;4.72;;
18947;SDS011;9607;51.600;7.558;2023-10-09T00:24:53;6.97;;;4.10;;
18947;SDS011;9607;51.600;7.558;2023-10-09T00:27:51;6.68;;;4.90;;
18947;SDS011;9607;51.600;7.558;2023-10-09T00:30:18;8.95;;;5.65;;
18947;SDS011;9607;51.600;7.558;2023-10-09T00:32:47;11.27;;;7.15;;
18947;SDS011;9607;51.600;7.558;2023-10-09T00:35:24;17.10;;;9.68;;
18947;SDS011;9607;51.600;7.558;2023-10-09T00:38:08;24.33;;;12.95;;
18947;SDS011;9607;51.600;7.558;2023-10-09T00:40:48;27.02;;;14.77;;
18947;SDS011;9607;51.600;7.558;2023-10-09T00:43:24;22.83;;;13.85;;
18947;SDS011;9607;51.600;7.558;2023-10-09T00:45:54;17.30;;;9.68;;
18947;SDS011;9607;51.600;7.558;2023-10-09T00:48:25;10.27;;;7.70;;
18947;SDS011;9607;51.600;7.558;2023-10-09T00:50:58;12.30;;;7.65;;
18947;SDS011;9607;51.600;7.558;2023-10-09T00:53:26;10.82;;;7.13;;
18947;SDS011;9607;51.600;7.558;2023-10-09T00:55:58;13.63;;;8.40;;
18947;SDS011;9607;51.600;7.558;2023-10-09T00:58:37;15.32;;;9.35;;
18947;SDS011;9607;51.600;7.558;2023-10-09T01:01:05;19.70;;;11.15;;
18947;SDS011;9607;51.600;7.558;2023-10-09T01:03:41;20.50;;;11.60;;
18947;SDS011;9607;51.600;7.558;2023-10-09T01:06:08;26.67;;;14.05;;
18947;SDS011;9607;51.600;7.558;2023-10-09T01:08:46;30.52;;;15.63;;
18947;SDS011;9607;51.600;7.558;2023-10-09T01:11:22;30.65;;;15.90;;
18947;SDS011;9607;51.600;7.558;2023-10-09T01:13:56;21.98;;;13.32;;
18947;SDS011;9607;51.600;7.558;2023-10-09T01:16:37;35.08;;;16.30;;
18947;SDS011;9607;51.600;7.558;2023-10-09T01:19:07;24.65;;;13.68;;
18947;SDS011;9607;51.600;7.558;2023-10-09T01:21:45;27.50;;;15.32;;
18947;SDS011;9607;51.600;7.558;2023-10-09T01:24:14;20.52;;;13.38;;
18947;SDS011;9607;51.600;7.558;2023-10-09T01:26:44;17.83;;;12.23;;
18947;SDS011;9607;51.600;7.558;2023-10-09T01:29:12;26.38;;;13.93;;
18947;SDS011;9607;51.600;7.558;2023-10-09T01:31:42;24.92;;;14.13;;
18947;SDS011;9607;51.600;7.558;2023-10-09T01:34:16;17.40;;;11.38;;
18947;SDS011;9607;51.600;7.558;2023-10-09T01:36:44;20.92;;;12.45;;
18947;SDS011;9607;51.600;7.558;2023-10-09T01:39:15;21.30;;;11.85;;
18947;SDS011;9607;51.600;7.558;2023-10-09T01:41:51;18.80;;;12.48;;
18947;SDS011;9607;51.600;7.558;2023-10-09T01:44:24;21.05;;;12.40;;
18947;SDS011;9607;51.600;7.558;2023-10-09T01:47:00;20.25;;;12.13;;
18947;SDS011;9607;51.600;7.558;2023-10-09T01:49:32;19.10;;;12.25;;
18947;SDS011;9607;51.600;7.558;2023-10-09T01:52:02;18.35;;;11.07;;
18947;SDS011;9607;51.600;7.558;2023-10-09T01:54:35;15.25;;;10.27;;
18947;SDS011;9607;51.600;7.558;2023-10-09T01:57:07;18.85;;;11.80;;
18947;SDS011;9607;51.600;7.558;2023-10-09T01:59:39;18.23;;;11.43;;
18947;SDS011;9607;51.600;7.558;2023-10-09T02:02:10;17.80;;;10.85;;
18947;SDS011;9607;51.600;7.558;2023-10-09T02:04:52;18.45;;;11.50;;
18947;SDS011;9607;51.600;7.558;2023-10-09T02:07:31;15.18;;;9.57;;
18947;SDS011;9607;51.600;7.558;2023-10-09T02:10:07;18.77;;;11.85;;
18947;SDS011;9607;51.600;7.558;2023-10-09T02:12:46;11.68;;;8.73;;
18947;SDS011;9607;51.600;7.558;2023-10-09T02:15:20;15.57;;;10.25;;
18947;SDS011;9607;51.600;7.558;2023-10-09T02:18:05;16.30;;;10.00;;
18947;SDS011;9607;51.600;7.558;2023-10-09T02:20:51;18.55;;;11.60;;
18947;SDS011;9607;51.600;7.558;2023-10-09T02:23:26;18.45;;;11.95;;
18947;SDS011;9607;51.600;7.558;2023-10-09T02:26:06;18.92;;;11.18;;
18947;SDS011;9607;51.600;7.558;2023-10-09T02:28:34;16.65;;;9.80;;
18947;SDS011;9607;51.600;7.558;2023-10-09T02:31:01;16.55;;;11.38;;
18947;SDS011;9607;51.600;7.558;2023-10-09T02:33:36;21.52;;;12.88;;
18947;SDS011;9607;51.600;7.558;2023-10-09T02:36:04;18.35;;;11.27;;
18947;SDS011;9607;51.600;7.558;2023-10-09T02:38:31;17.92;;;11.52;;
18947;SDS011;9607;51.600;7.558;2023-10-09T02:41:01;17.35;;;11.07;;
18947;SDS011;9607;51.600;7.558;2023-10-09T02:43:46;18.20;;;10.95;;
18947;SDS011;9607;51.600;7.558;2023-10-09T02:46:16;18.92;;;11.60;;
18947;SDS011;9607;51.600;7.558;2023-10-09T02:48:45;19.70;;;9.75;;
18947;SDS011;9607;51.600;7.558;2023-10-09T02:51:16;15.88;;;10.30;;
18947;SDS011;9607;51.600;7.558;2023-10-09T02:54:04;16.52;;;9.45;;
18947;SDS011;9607;51.600;7.558;2023-10-09T02:56:43;17.10;;;11.63;;
18947;SDS011;9607;51.600;7.558;2023-10-09T02:59:14;11.68;;;8.75;;
18947;SDS011;9607;51.600;7.558;2023-10-09T03:01:41;14.98;;;10.15;;
18947;SDS011;9607;51.600;7.558;2023-10-09T03:04:08;14.80;;;10.30;;
18947;SDS011;9607;51.600;7.558;2023-10-09T03:06:39;15.45;;;9.48;;
18947;SDS011;9607;51.600;7.558;2023-10-09T03:09:11;19.10;;;10.68;;
18947;SDS011;9607;51.600;7.558;2023-10-09T03:11:43;14.45;;;9.60;;
18947;SDS011;9607;51.600;7.558;2023-10-09T03:14:11;13.55;;;8.50;;
18947;SDS011;9607;51.600;7.558;2023-10-09T03:16:40;16.98;;;10.00;;
18947;SDS011;9607;51.600;7.558;2023-10-09T03:19:08;15.88;;;9.68;;
18947;SDS011;9607;51.600;7.558;2023-10-09T03:21:35;14.00;;;8.98;;
18947;SDS011;9607;51.600;7.558;2023-10-09T03:24:02;15.48;;;9.32;;
18947;SDS011;9607;51.600;7.558;2023-10-09T03:26:32;12.73;;;9.10;;
18947;SDS011;9607;51.600;7.558;2023-10-09T03:28:59;14.70;;;9.63;;
18947;SDS011;9607;51.600;7.558;2023-10-09T03:31:28;12.60;;;8.77;;
18947;SDS011;9607;51.600;7.558;2023-10-09T03:33:56;17.10;;;9.40;;
18947;SDS011;9607;51.600;7.558;2023-10-09T03:36:23;12.25;;;7.57;;
18947;SDS011;9607;51.600;7.558;2023-10-09T03:38:52;14.25;;;8.45;;
18947;SDS011;9607;51.600;7.558;2023-10-09T03:41:23;14.40;;;8.90;;
18947;SDS011;9607;51.600;7.558;2023-10-09T03:43:51;10.85;;;7.70;;
18947;SDS011;9607;51.600;7.558;2023-10-09T03:46:19;14.45;;;8.07;;
18947;SDS011;9607;51.600;7.558;2023-10-09T03:48:49;15.80;;;9.05;;
18947;SDS011;9607;51.600;7.558;2023-10-09T03:51:18;14.88;;;8.40;;
18947;SDS011;9607;51.600;7.558;2023-10-09T03:53:47;12.80;;;8.85;;
18947;SDS011;9607;51.600;7.558;2023-10-09T03:56:14;16.08;;;9.95;;
18947;SDS011;9607;51.600;7.558;2023-10-09T03:58:43;13.48;;;8.60;;
18947;SDS011;9607;51.600;7.558;2023-10-09T04:01:11;10.15;;;7.30;;
18947;SDS011;9607;51.600;7.558;2023-10-09T04:03:49;11.68;;;7.38;;
18947;SDS011;9607;51.600;7.558;2023-10-09T04:06:20;13.48;;;8.40;;
18947;SDS011;9607;51.600;7.558;2023-10-09T04:08:47;11.98;;;7.78;;
18947;SDS011;9607;51.600;7.558;2023-10-09T04:11:16;13.93;;;7.45;;
18947;SDS011;9607;51.600;7.558;2023-10-09T04:13:47;13.65;;;8.27;;
18947;SDS011;9607;51.600;7.558;2023-10-09T04:16:15;11.07;;;7.50;;
18947;SDS011;9607;51.600;7.558;2023-10-09T04:19:02;9.55;;;6.90;;
18947;SDS011;9607;51.600;7.558;2023-10-09T04:21:36;11.60;;;6.57;;
18947;SDS011;9607;51.600;7.558;2023-10-09T04:24:02;14.15;;;7.78;;
18947;SDS011;9607;51.600;7.558;2023-10-09T04:26:48;11.52;;;7.28;;
18947;SDS011;9607;51.600;7.558;2023-10-09T04:29:21;10.40;;;7.40;;
18947;SDS011;9607;51.600;7.558;2023-10-09T04:32:03;9.48;;;6.63;;
18947;SDS011;9607;51.600;7.558;2023-10-09T04:34:34;10.10;;;8.15;;
18947;SDS011;9607;51.600;7.558;2023-10-09T04:37:01;10.00;;;6.68;;
18947;SDS011;9607;51.600;7.558;2023-10-09T04:39:45;9.05;;;6.30;;
18947;SDS011;9607;51.600;7.558;2023-10-09T04:42:15;13.00;;;7.78;;
18947;SDS011;9607;51.600;7.558;2023-10-09T04:45:05;11.63;;;7.75;;
18947;SDS011;9607;51.600;7.558;2023-10-09T04:47:47;10.65;;;6.68;;
18947;SDS011;9607;51.600;7.558;2023-10-09T04:50:32;10.25;;;7.43;;
18947;SDS011;9607;51.600;7.558;2023-10-09T04:53:28;10.02;;;6.28;;
18947;SDS011;9607;51.600;7.558;2023-10-09T04:56:04;15.32;;;9.07;;
18947;SDS011;9607;51.600;7.558;2023-10-09T04:58:40;12.27;;;7.18;;
18947;SDS011;9607;51.600;7.558;2023-10-09T05:01:08;12.27;;;7.78;;
18947;SDS011;9607;51.600;7.558;2023-10-09T05:03:41;13.88;;;7.63;;
18947;SDS011;9607;51.600;7.558;2023-10-09T05:06:12;13.70;;;7.32;;
18947;SDS011;9607;51.600;7.558;2023-10-09T05:08:57;10.90;;;6.85;;
18947;SDS011;9607;51.600;7.558;2023-10-09T05:11:34;12.02;;;6.90;;
18947;SDS011;9607;51.600;7.558;2023-10-09T05:14:18;8.45;;;6.43;;
18947;SDS011;9607;51.600;7.558;2023-10-09T05:16:52;12.07;;;7.05;;
18947;SDS011;9607;51.600;7.558;2023-10-09T05:19:20;13.38;;;8.30;;
18947;SDS011;9607;51.600;7.558;2023-10-09T05:22:06;11.77;;;7.72;;
18947;SDS011;9607;51.600;7.558;2023-10-09T05:24:42;14.57;;;7.85;;
18947;SDS011;9607;51.600;7.558;2023-10-09T05:27:12;11.10;;;7.70;;
18947;SDS011;9607;51.600;7.558;2023-10-09T05:29:43;14.63;;;7.88;;
18947;SDS011;9607;51.600;7.558;2023-10-09T05:32:25;12.05;;;8.73;;
18947;SDS011;9607;51.600;7.558;2023-10-09T05:35:00;13.27;;;8.02;;
18947;SDS011;9607;51.600;7.558;2023-10-09T05:37:42;12.48;;;6.88;;
18947;SDS011;9607;51.600;7.558;2023-10-09T05:40:13;12.90;;;8.02;;
18947;SDS011;9607;51.600;7.558;2023-10-09T05:42:49;12.43;;;7.55;;
18947;SDS011;9607;51.600;7.558;2023-10-09T05:45:28;12.15;;;7.60;;
18947;SDS011;9607;51.600;7.558;2023-10-09T05:48:11;12.00;;;8.13;;
18947;SDS011;9607;51.600;7.558;2023-10-09T05:50:56;10.77;;;7.53;;
18947;SDS011;9607;51.600;7.558;2023-10-09T05:54:07;14.25;;;8.25;;
18947;SDS011;9607;51.600;7.558;2023-10-09T05:56:51;12.75;;;8.23;;
18947;SDS011;9607;51.600;7.558;2023-10-09T05:59:56;10.82;;;7.57;;
18947;SDS011;9607;51.600;7.558;2023-10-09T06:02:40;13.38;;;7.22;;
18947;SDS011;9607;51.600;7.558;2023-10-09T06:05:24;14.18;;;8.65;;
18947;SDS011;9607;51.600;7.558;2023-10-09T06:08:07;12.38;;;7.93;;
18947;SDS011;9607;51.600;7.558;2023-10-09T06:10:39;11.93;;;7.38;;
18947;SDS011;9607;51.600;7.558;2023-10-09T06:13:09;14.80;;;9.38;;
18947;SDS011;9607;51.600;7.558;2023-10-09T06:16:12;15.82;;;8.98;;
18947;SDS011;9607;51.600;7.558;2023-10-09T06:19:06;12.65;;;7.75;;
18947;SDS011;9607;51.600;7.558;2023-10-09T06:21:38;10.20;;;7.22;;
18947;SDS011;9607;51.600;7.558;2023-10-09T06:24:25;15.55;;;8.57;;
18947;SDS011;9607;51.600;7.558;2023-10-09T06:26:58;11.30;;;6.95;;
18947;SDS011;9607;51.600;7.558;2023-10-09T06:29:49;13.40;;;8.68;;
18947;SDS011;9607;51.600;7.558;2023-10-09T06:32:40;12.25;;;8.70;;
18947;SDS011;9607;51.600;7.558;2023-10-09T06:35:16;13.75;;;8.52;;
18947;SDS011;9607;51.600;7.558;2023-10-09T06:37:47;12.65;;;8.50;;
18947;SDS011;9607;51.600;7.558;2023-10-09T06:40:32;11.32;;;7.93;;
18947;SDS011;9607;51.600;7.558;2023-10-09T06:43:17;11.73;;;8.20;;
18947;SDS011;9607;51.600;7.558;2023-10-09T06:45:52;10.35;;;7.13;;
18947;SDS011;9607;51.600;7.558;2023-10-09T06:48:22;11.32;;;7.63;;
18947;SDS011;9607;51.600;7.558;2023-10-09T06:51:06;12.02;;;8.15;;
18947;SDS011;9607;51.600;7.558;2023-10-09T06:53:38;10.77;;;7.90;;
18947;SDS011;9607;51.600;7.558;2023-10-09T06:56:23;9.35;;;7.28;;
18947;SDS011;9607;51.600;7.558;2023-10-09T06:59:12;11.60;;;8.27;;
18947;SDS011;9607;51.600;7.558;2023-10-09T07:01:46;15.10;;;8.93;;
18947;SDS011;9607;51.600;7.558;2023-10-09T07:04:34;12.60;;;7.85;;
18947;SDS011;9607;51.600;7.558;2023-10-09T07:07:12;11.73;;;8.05;;
18947;SDS011;9607;51.600;7.558;2023-10-09T07:09:41;14.25;;;8.55;;
18947;SDS011;9607;51.600;7.558;2023-10-09T07:12:08;10.98;;;6.93;;
18947;SDS011;9607;51.600;7.558;2023-10-09T07:14:39;12.68;;;8.50;;
18947;SDS011;9607;51.600;7.558;2023-10-09T07:17:24;13.30;;;8.15;;
18947;SDS011;9607;51.600;7.558;2023-10-09T07:20:11;9.18;;;6.80;;
18947;SDS011;9607;51.600;7.558;2023-10-09T07:23:01;10.65;;;6.50;;
18947;SDS011;9607;51.600;7.558;2023-10-09T07:25:39;14.55;;;8.45;;
18947;SDS011;9607;51.600;7.558;2023-10-09T07:28:21;12.10;;;7.82;;
18947;SDS011;9607;51.600;7.558;2023-10-09T07:31:08;13.00;;;8.35;;
18947;SDS011;9607;51.600;7.558;2023-10-09T07:33:49;15.38;;;8.05;;
18947;SDS011;9607;51.600;7.558;2023-10-09T07:36:47;13.25;;;7.70;;
18947;SDS011;9607;51.600;7.558;2023-10-09T07:39:17;10.88;;;6.65;;
18947;SDS011;9607;51.600;7.558;2023-10-09T07:41:47;11.02;;;7.85;;
18947;SDS011;9607;51.600;7.558;2023-10-09T07:44:27;12.18;;;7.72;;
18947;SDS011;9607;51.600;7.558;2023-10-09T07:47:03;11.55;;;7.07;;
18947;SDS011;9607;51.600;7.558;2023-10-09T07:49:42;12.02;;;6.80;;
18947;SDS011;9607;51.600;7.558;2023-10-09T07:52:15;10.98;;;7.32;;
18947;SDS011;9607;51.600;7.558;2023-10-09T07:54:42;11.40;;;8.27;;
18947;SDS011;9607;51.600;7.558;2023-10-09T07:57:15;12.57;;;7.95;;
18947;SDS011;9607;51.600;7.558;2023-10-09T07:59:42;16.63;;;8.73;;
18947;SDS011;9607;51.600;7.558;2023-10-09T08:02:19;16.13;;;8.82;;
18947;SDS011;9607;51.600;7.558;2023-10-09T08:04:56;12.63;;;8.10;;
18947;SDS011;9607;51.600;7.558;2023-10-09T08:07:30;13.13;;;8.55;;
18947;SDS011;9607;51.600;7.558;2023-10-09T08:10:06;11.35;;;8.40;;
18947;SDS011;9607;51.600;7.558;2023-10-09T08:13:00;11.45;;;8.07;;
18947;SDS011;9607;51.600;7.558;2023-10-09T08:15:55;12.35;;;7.65;;
18947;SDS011;9607;51.600;7.558;2023-10-09T08:18:21;9.48;;;6.70;;
18947;SDS011;9607;51.600;7.558;2023-10-09T08:20:54;10.95;;;7.30;;
18947;SDS011;9607;51.600;7.558;2023-10-09T08:23:40;13.13;;;7.53;;
18947;SDS011;9607;51.600;7.558;2023-10-09T08:26:16;12.25;;;9.20;;
18947;SDS011;9607;51.600;7.558;2023-10-09T08:28:54;12.40;;;7.90;;
18947;SDS011;9607;51.600;7.558;2023-10-09T08:31:41;13.52;;;8.77;;
18947;SDS011;9607;51.600;7.558;2023-10-09T08:34:21;12.48;;;8.80;;
18947;SDS011;9607;51.600;7.558;2023-10-09T08:36:52;11.20;;;7.93;;
18947;SDS011;9607;51.600;7.558;2023-10-09T08:39:20;12.52;;;7.93;;
18947;SDS011;9607;51.600;7.558;2023-10-09T08:41:58;18.98;;;9.20;;
18947;SDS011;9607;51.600;7.558;2023-10-09T08:44:26;14.32;;;9.38;;
18947;SDS011;9607;51.600;7.558;2023-10-09T08:46:57;13.73;;;8.65;;
18947;SDS011;9607;51.600;7.558;2023-10-09T08:49:25;14.05;;;9.63;;
18947;SDS011;9607;51.600;7.558;2023-10-09T08:51:52;14.93;;;9.38;;
18947;SDS011;9607;51.600;7.558;2023-10-09T08:54:21;14.30;;;8.80;;
18947;SDS011;9607;51.600;7.558;2023-10-09T08:56:48;15.65;;;9.27;;
18947;SDS011;9607;51.600;7.558;2023-10-09T08:59:19;17.80;;;9.07;;
18947;SDS011;9607;51.600;7.558;2023-10-09T09:01:47;16.77;;;10.02;;
18947;SDS011;9607;51.600;7.558;2023-10-09T09:04:35;14.20;;;8.60;;
18947;SDS011;9607;51.600;7.558;2023-10-09T09:07:03;12.57;;;8.75;;
18947;SDS011;9607;51.600;7.558;2023-10-09T09:09:31;12.45;;;8.20;;
18947;SDS011;9607;51.600;7.558;2023-10-09T09:11:59;14.27;;;8.65;;
18947;SDS011;9607;51.600;7.558;2023-10-09T09:14:35;13.65;;;8.00;;
18947;SDS011;9607;51.600;7.558;2023-10-09T09:17:03;10.18;;;7.45;;
18947;SDS011;9607;51.600;7.558;2023-10-09T09:19:31;7.93;;;6.40;;
18947;SDS011;9607;51.600;7.558;2023-10-09T09:22:03;10.00;;;6.32;;
18947;SDS011;9607;51.600;7.558;2023-10-09T09:24:39;7.93;;;6.22;;
18947;SDS011;9607;51.600;7.558;2023-10-09T09:27:11;9.10;;;6.75;;
18947;SDS011;9607;51.600;7.558;2023-10-09T09:29:45;9.13;;;6.30;;
18947;SDS011;9607;51.600;7.558;2023-10-09T09:32:26;9.80;;;6.57;;
18947;SDS011;9607;51.600;7.558;2023-10-09T09:35:00;10.55;;;7.15;;
18947;SDS011;9607;51.600;7.558;2023-10-09T09:37:29;9.27;;;6.43;;
18947;SDS011;9607;51.600;7.558;2023-10-09T09:40:16;12.60;;;8.20;;
18947;SDS011;9607;51.600;7.558;2023-10-09T09:42:55;9.35;;;7.10;;
18947;SDS011;9607;51.600;7.558;2023-10-09T09:45:31;12.13;;;7.43;;
18947;SDS011;9607;51.600;7.558;2023-10-09T09:47:59;8.27;;;6.40;;
18947;SDS011;9607;51.600;7.558;2023-10-09T09:50:31;8.82;;;5.88;;
18947;SDS011;9607;51.600;7.558;2023-10-09T09:52:58;13.52;;;7.95;;
18947;SDS011;9607;51.600;7.558;2023-10-09T09:55:34;11.20;;;6.85;;
18947;SDS011;9607;51.600;7.558;2023-10-09T09:58:08;11.95;;;7.43;;
18947;SDS011;9607;51.600;7.558;2023-10-09T10:00:45;10.43;;;7.72;;
18947;SDS011;9607;51.600;7.558;2023-10-09T10:03:18;12.82;;;6.78;;
18947;SDS011;9607;51.600;7.558;2023-10-09T10:05:48;12.18;;;7.57;;
18947;SDS011;9607;51.600;7.558;2023-10-09T10:08:18;10.40;;;8.38;;
18947;SDS011;9607;51.600;7.558;2023-10-09T10:10:47;9.52;;;7.38;;
18947;SDS011;9607;51.600;7.558;2023-10-09T10:13:17;12.52;;;8.27;;
18947;SDS011;9607;51.600;7.558;2023-10-09T10:16:09;13.52;;;8.05;;
18947;SDS011;9607;51.600;7.558;2023-10-09T10:18:54;14.10;;;9.43;;
18947;SDS011;9607;51.600;7.558;2023-10-09T10:21:32;13.00;;;8.13;;
18947;SDS011;9607;51.600;7.558;2023-10-09T10:24:05;12.13;;;8.93;;
18947;SDS011;9607;51.600;7.558;2023-10-09T10:27:21;12.23;;;8.50;;
18947;SDS011;9607;51.600;7.558;2023-10-09T10:32:58;15.77;;;8.40;;
18947;SDS011;9607;51.600;7.558;2023-10-09T10:35:34;11.65;;;7.88;;
18947;SDS011;9607;51.600;7.558;2023-10-09T10:38:26;14.90;;;8.57;;
18947;SDS011;9607;51.600;7.558;2023-10-09T10:41:11;11.98;;;8.65;;
18947;SDS011;9607;51.600;7.558;2023-10-09T10:43:42;14.57;;;9.82;;
18947;SDS011;9607;51.600;7.558;2023-10-09T10:46:45;14.70;;;9.57;;
18947;SDS011;9607;51.600;7.558;2023-10-09T10:49:17;15.38;;;8.73;;
18947;SDS011;9607;51.600;7.558;2023-10-09T10:51:47;14.32;;;8.82;;
18947;SDS011;9607;51.600;7.558;2023-10-09T10:54:24;14.35;;;9.55;;
18947;SDS011;9607;51.600;7.558;2023-10-09T10:57:14;15.10;;;8.98;;
18947;SDS011;9607;51.600;7.558;2023-10-09T10:59:54;20.85;;;9.15;;
18947;SDS011;9607;51.600;7.558;2023-10-09T11:02:39;13.63;;;9.00;;
18947;SDS011;9607;51.600;7.558;2023-10-09T11:05:08;12.13;;;8.55;;
18947;SDS011;9607;51.600;7.558;2023-10-09T11:07:48;14.13;;;8.23;;
18947;SDS011;9607;51.600;7.558;2023-10-09T11:10:21;13.65;;;8.68;;
18947;SDS011;9607;51.600;7.558;2023-10-09T11:12:54;16.08;;;10.20;;
18947;SDS011;9607;51.600;7.558;2023-10-09T11:15:40;18.58;;;9.45;;
18947;SDS011;9607;51.600;7.558;2023-10-09T11:18:21;16.02;;;9.63;;
18947;SDS011;9607;51.600;7.558;2023-10-09T11:20:51;15.32;;;9.32;;
18947;SDS011;9607;51.600;7.558;2023-10-09T11:23:43;14.18;;;9.63;;
18947;SDS011;9607;51.600;7.558;2023-10-09T11:26:23;25.40;;;11.13;;
18947;SDS011;9607;51.600;7.558;2023-10-09T11:31:41;17.48;;;10.23;;
18947;SDS011;9607;51.600;7.558;2023-10-09T11:34:19;17.67;;;9.98;;
18947;SDS011;9607;51.600;7.558;2023-10-09T11:36:54;15.10;;;8.85;;
18947;SDS011;9607;51.600;7.558;2023-10-09T11:39:26;20.80;;;9.65;;
18947;SDS011;9607;51.600;7.558;2023-10-09T11:42:17;12.18;;;8.10;;
18947;SDS011;9607;51.600;7.558;2023-10-09T11:45:00;13.25;;;9.38;;
18947;SDS011;9607;51.600;7.558;2023-10-09T11:47:45;17.83;;;9.52;;
18947;SDS011;9607;51.600;7.558;2023-10-09T11:50:36;13.80;;;9.27;;
18947;SDS011;9607;51.600;7.558;2023-10-09T11:53:08;16.05;;;10.43;;
18947;SDS011;9607;51.600;7.558;2023-10-09T11:55:35;13.57;;;8.13;;
18947;SDS011;9607;51.600;7.558;2023-10-09T11:58:03;12.48;;;7.47;;
18947;SDS011;9607;51.600;7.558;2023-10-09T12:00:32;11.13;;;7.60;;
18947;SDS011;9607;51.600;7.558;2023-10-09T12:03:11;14.32;;;8.43;;
18947;SDS011;9607;51.600;7.558;2023-10-09T12:05:39;12.80;;;9.50;;
18947;SDS011;9607;51.600;7.558;2023-10-09T12:08:09;14.27;;;9.18;;
18947;SDS011;9607;51.600;7.558;2023-10-09T12:10:39;15.00;;;8.52;;
18947;SDS011;9607;51.600;7.558;2023-10-09T12:13:06;15.40;;;8.40;;
18947;SDS011;9607;51.600;7.558;2023-10-09T12:15:33;12.95;;;8.80;;
18947;SDS011;9607;51.600;7.558;2023-10-09T12:18:04;14.25;;;9.10;;
18947;SDS011;9607;51.600;7.558;2023-10-09T12:20:41;10.80;;;7.82;;
18947;SDS011;9607;51.600;7.558;2023-10-09T12:23:13;15.23;;;8.25;;
18947;SDS011;9607;51.600;7.558;2023-10-09T12:25:40;14.20;;;7.75;;
18947;SDS011;9607;51.600;7.558;2023-10-09T12:28:09;11.98;;;7.85;;
18947;SDS011;9607;51.600;7.558;2023-10-09T12:30:38;16.10;;;9.25;;
18947;SDS011;9607;51.600;7.558;2023-10-09T12:33:06;11.57;;;7.13;;
18947;SDS011;9607;51.600;7.558;2023-10-09T12:35:36;13.38;;;7.47;;
18947;SDS011;9607;51.600;7.558;2023-10-09T12:38:05;10.55;;;6.60;;
18947;SDS011;9607;51.600;7.558;2023-10-09T12:40:34;8.60;;;5.80;;
18947;SDS011;9607;51.600;7.558;2023-10-09T12:43:01;12.48;;;7.80;;
18947;SDS011;9607;51.600;7.558;2023-10-09T12:45:28;11.38;;;7.75;;
18947;SDS011;9607;51.600;7.558;2023-10-09T12:47:58;10.02;;;6.97;;
18947;SDS011;9607;51.600;7.558;2023-10-09T12:50:27;15.52;;;7.60;;
18947;SDS011;9607;51.600;7.558;2023-10-09T12:52:55;8.23;;;5.90;;
18947;SDS011;9607;51.600;7.558;2023-10-09T12:55:28;11.85;;;6.75;;
18947;SDS011;9607;51.600;7.558;2023-10-09T12:57:59;14.63;;;8.23;;
18947;SDS011;9607;51.600;7.558;2023-10-09T13:00:31;12.30;;;8.18;;
18947;SDS011;9607;51.600;7.558;2023-10-09T13:02:59;13.02;;;8.77;;
18947;SDS011;9607;51.600;7.558;2023-10-09T13:05:38;11.80;;;7.90;;
18947;SDS011;9607;51.600;7.558;2023-10-09T13:08:16;12.35;;;7.88;;
18947;SDS011;9607;51.600;7.558;2023-10-09T13:10:47;15.52;;;9.05;;
18947;SDS011;9607;51.600;7.558;2023-10-09T13:13:23;12.55;;;9.00;;
18947;SDS011;9607;51.600;7.558;2023-10-09T13:15:59;13.70;;;8.18;;
18947;SDS011;9607;51.600;7.558;2023-10-09T13:18:31;12.13;;;7.40;;
18947;SDS011;9607;51.600;7.558;2023-10-09T13:20:58;17.63;;;8.07;;
18947;SDS011;9607;51.600;7.558;2023-10-09T13:23:28;10.00;;;6.75;;
18947;SDS011;9607;51.600;7.558;2023-10-09T13:26:04;9.07;;;6.32;;
18947;SDS011;9607;51.600;7.558;2023-10-09T13:28:45;11.32;;;6.78;;
18947;SDS011;9607;51.600;7.558;2023-10-09T13:31:13;8.13;;;7.03;;
18947;SDS011;9607;51.600;7.558;2023-10-09T13:33:41;12.60;;;7.85;;
18947;SDS011;9607;51.600;7.558;2023-10-09T13:36:08;10.27;;;7.15;;
18947;SDS011;9607;51.600;7.558;2023-10-09T13:38:42;11.75;;;7.40;;
18947;SDS011;9607;51.600;7.558;2023-10-09T13:41:11;12.25;;;7.25;;
18947;SDS011;9607;51.600;7.558;2023-10-09T13:43:42;14.68;;;7.30;;
18947;SDS011;9607;51.600;7.558;2023-10-09T13:46:10;13.90;;;9.00;;
18947;SDS011;9607;51.600;7.558;2023-10-09T13:48:39;14.88;;;8.65;;
18947;SDS011;9607;51.600;7.558;2023-10-09T13:51:08;11.23;;;7.63;;
18947;SDS011;9607;51.600;7.558;2023-10-09T13:53:39;9.73;;;6.80;;
18947;SDS011;9607;51.600;7.558;2023-10-09T13:56:11;13.02;;;8.55;;
18947;SDS011;9607;51.600;7.558;2023-10-09T13:58:43;10.93;;;7.50;;
18947;SDS011;9607;51.600;7.558;2023-10-09T14:01:11;10.48;;;8.05;;
18947;SDS011;9607;51.600;7.558;2023-10-09T14:03:45;13.80;;;9.40;;
18947;SDS011;9607;51.600;7.558;2023-10-09T14:06:17;12.95;;;7.43;;
18947;SDS011;9607;51.600;7.558;2023-10-09T14:08:55;13.52;;;7.68;;
18947;SDS011;9607;51.600;7.558;2023-10-09T14:11:23;12.13;;;8.52;;
18947;SDS011;9607;51.600;7.558;2023-10-09T14:13:51;12.35;;;8.13;;
18947;SDS011;9607;51.600;7.558;2023-10-09T14:16:18;10.60;;;7.60;;
18947;SDS011;9607;51.600;7.558;2023-10-09T14:18:52;12.63;;;7.47;;
18947;SDS011;9607;51.600;7.558;2023-10-09T14:21:22;13.70;;;8.38;;
18947;SDS011;9607;51.600;7.558;2023-10-09T14:23:50;14.95;;;10.57;;
18947;SDS011;9607;51.600;7.558;2023-10-09T14:26:23;12.32;;;8.60;;
18947;SDS011;9607;51.600;7.558;2023-10-09T14:28:52;9.85;;;7.07;;
18947;SDS011;9607;51.600;7.558;2023-10-09T14:31:21;19.25;;;10.82;;
18947;SDS011;9607;51.600;7.558;2023-10-09T14:33:53;14.18;;;9.63;;
18947;SDS011;9607;51.600;7.558;2023-10-09T14:36:20;12.80;;;8.88;;
18947;SDS011;9607;51.600;7.558;2023-10-09T14:38:48;16.27;;;9.25;;
18947;SDS011;9607;51.600;7.558;2023-10-09T14:41:18;13.48;;;8.27;;
18947;SDS011;9607;51.600;7.558;2023-10-09T14:43:48;12.48;;;8.82;;
18947;SDS011;9607;51.600;7.558;2023-10-09T14:46:16;13.48;;;8.43;;
18947;SDS011;9607;51.600;7.558;2023-10-09T14:48:48;11.88;;;8.30;;
18947;SDS011;9607;51.600;7.558;2023-10-09T14:51:17;16.08;;;10.23;;
18947;SDS011;9607;51.600;7.558;2023-10-09T14:53:51;19.88;;;12.00;;
18947;SDS011;9607;51.600;7.558;2023-10-09T14:56:22;16.25;;;10.25;;
18947;SDS011;9607;51.600;7.558;2023-10-09T14:58:55;18.70;;;10.45;;
18947;SDS011;9607;51.600;7.558;2023-10-09T15:01:23;15.38;;;9.32;;
18947;SDS011;9607;51.600;7.558;2023-10-09T15:03:53;14.10;;;9.07;;
18947;SDS011;9607;51.600;7.558;2023-10-09T15:06:22;15.30;;;10.07;;
18947;SDS011;9607;51.600;7.558;2023-10-09T15:08:52;15.15;;;9.48;;
18947;SDS011;9607;51.600;7.558;2023-10-09T15:11:24;10.80;;;7.30;;
18947;SDS011;9607;51.600;7.558;2023-10-09T15:13:54;14.52;;;9.65;;
18947;SDS011;9607;51.600;7.558;2023-10-09T15:16:23;18.55;;;10.95;;
18947;SDS011;9607;51.600;7.558;2023-10-09T15:18:52;14.25;;;10.43;;
18947;SDS011;9607;51.600;7.558;2023-10-09T15:21:22;15.68;;;8.95;;
18947;SDS011;9607;51.600;7.558;2023-10-09T15:23:51;13.65;;;9.23;;
18947;SDS011;9607;51.600;7.558;2023-10-09T15:26:19;14.40;;;8.95;;
18947;SDS011;9607;51.600;7.558;2023-10-09T15:28:47;17.60;;;12.25;;
18947;SDS011;9607;51.600;7.558;2023-10-09T15:31:17;17.33;;;11.52;;
18947;SDS011;9607;51.600;7.558;2023-10-09T15:33:46;14.52;;;9.98;;
18947;SDS011;9607;51.600;7.558;2023-10-09T15:36:16;15.90;;;11.38;;